Hlavní strana
METAR-TAF:

METAR-TAF

Letiště :

Gabès, Tunisko

zeměpisná šířka: 33-53N, zeměpisná délka: 010-06E, výška: 4 m

Aktuální stav počasí

Zpráva byla vytvořena před 1 hodinou a 9 minutami, v 21:00 UTC
Východní vítr 8 kt
Teplota 11°C
Vlhkost vzduchu 87%
Tlak 1024 hPa
Viditelnost: 5000 m

METAR: DTTG 282100Z 09008KT 5000 NSC 11/09 Q1024 NOSIG

Čas: 23:09 (22:09 UTC)

Předpověď počasí

Zpráva byla vytvořena před 1 hodinou a 9 minutami, v 21:00 UTC
Předpověď platná od 28 v 22 UTC do 01 v 07 UTC
Východní vítr 8 kt
Viditelnost: 5000 m
Pravděpodobnost 40% :
Dočasný
od 01 v 00 UTC do 01 v 07 UTC
Viditelnost: 2000 m
kouřmo

TAF: DTTG 282100Z 2822/0107 08008KT 5000 NSC PROB40 TEMPO 0100/0107 2000 BR

Stav a předpovědi počasí z více než 4 000 letišť (zprávy METAR a TAF).

Červené a žluté tečky na mapě představují dostupné meteorologické stanice.

Když kurzor umístíte na tečku, zobrazí se název stanice.

Pak kliknutím zobrazíte stav a předpověď počasí.

Chcete-li změnit mapu, kliknutím na zelené tlačítko se znaménkem +mapu přiblížíte, kliknutím na zelené tlačítko se znaménkem – mapu oddálíte a kliknutím na zelené šipky přejdete na sousední mapy.


METAR-TAF: